Time;durP1;ratioP1;P1;durP2;ratioP2;P2;SDS_P1;SDS_P2;PMS_P1;PMS_P2;Temp;Humidity;BMP_temperature;BMP_pressure;BME280_temperature;BME280_humidity;BME280_pressure;Samples;Min_cycle;Max_cycle;Signal;HPM_P1;HPM_P2
2021/05/16 00:01:17;;;;;;;2.22;2.03;;;10.20;99.90;;;;;;5028143;28;20116;-46
2021/05/16 00:03:42;;;;;;;2.47;2.03;;;10.20;99.90;;;;;;5028173;28;20453;-46
2021/05/16 00:06:08;;;;;;;3.28;2.10;;;10.20;99.90;;;;;;5028220;28;20025;-45
2021/05/16 00:08:34;;;;;;;2.65;2.30;;;10.20;99.90;;;;;;5027980;28;20017;-46
2021/05/16 00:10:59;;;;;;;4.53;2.38;;;10.20;99.90;;;;;;5028612;28;20029;-47
2021/05/16 00:13:26;;;;;;;3.58;2.33;;;10.20;99.90;;;;;;5030452;28;20157;-45
2021/05/16 00:15:51;;;;;;;7.55;2.53;;;10.20;99.90;;;;;;5031982;28;20360;-46
2021/05/16 00:18:17;;;;;;;3.05;2.30;;;10.20;99.90;;;;;;5031105;28;20040;-47
2021/05/16 00:20:42;;;;;;;2.85;2.50;;;10.10;99.90;;;;;;5031853;28;20403;-45
2021/05/16 00:23:09;;;;;;;2.92;2.58;;;10.10;99.90;;;;;;5031838;28;20479;-46
2021/05/16 00:25:35;;;;;;;2.75;2.55;;;10.20;99.90;;;;;;5032003;28;20026;-46
2021/05/16 00:28:01;;;;;;;4.63;2.38;;;10.10;99.90;;;;;;5031123;28;20033;-45
2021/05/16 00:30:28;;;;;;;3.50;2.50;;;10.10;99.90;;;;;;5031509;28;20013;-46
2021/05/16 00:32:55;;;;;;;5.60;2.75;;;10.10;99.90;;;;;;5031358;28;20318;-45
2021/05/16 00:35:22;;;;;;;3.42;2.65;;;10.10;99.90;;;;;;5031636;28;20030;-46
2021/05/16 00:37:47;;;;;;;3.25;2.30;;;10.00;99.90;;;;;;5030266;28;20056;-47
2021/05/16 00:40:14;;;;;;;6.00;2.90;;;10.00;99.90;;;;;;5031447;28;20452;-46
2021/05/16 00:42:39;;;;;;;4.10;3.33;;;10.00;99.90;;;;;;5031237;28;20123;-49
2021/05/16 00:45:09;;;;;;;3.70;3.40;;;10.00;99.90;;;;;;5031393;28;20104;-46
2021/05/16 00:47:36;;;;;;;3.97;3.33;;;10.00;99.90;;;;;;5031155;28;20104;-45
2021/05/16 00:50:08;;;;;;;3.50;3.20;;;9.90;99.90;;;;;;5030153;28;20025;-46
2021/05/16 00:52:33;;;;;;;4.13;3.13;;;9.90;99.90;;;;;;5031142;28;20060;-47
2021/05/16 00:54:59;;;;;;;6.15;4.00;;;9.90;99.90;;;;;;5031252;28;20061;-46
2021/05/16 00:57:24;;;;;;;7.95;4.38;;;9.80;99.90;;;;;;5030499;28;20022;-46
2021/05/16 00:59:50;;;;;;;5.82;3.28;;;9.80;99.90;;;;;;5031236;28;20398;-47
2021/05/16 01:02:17;;;;;;;5.25;4.50;;;9.90;99.90;;;;;;5031157;28;20018;-46
2021/05/16 01:04:43;;;;;;;6.78;4.28;;;9.90;99.90;;;;;;5030893;28;20067;-47
2021/05/16 01:07:09;;;;;;;4.40;3.65;;;9.90;99.90;;;;;;5030987;28;20029;-46
2021/05/16 01:09:34;;;;;;;4.95;3.97;;;9.90;99.90;;;;;;5030157;28;20029;-46
2021/05/16 01:12:03;;;;;;;5.75;4.38;;;9.90;99.90;;;;;;5029384;28;20529;-46
2021/05/16 01:14:33;;;;;;;5.38;4.25;;;9.90;99.90;;;;;;5028927;28;20100;-46
2021/05/16 01:16:59;;;;;;;6.57;4.55;;;9.90;99.90;;;;;;5030145;28;20021;-45
2021/05/16 01:19:24;;;;;;;5.63;4.82;;;9.90;99.90;;;;;;5029505;28;20036;-46
2021/05/16 01:21:53;;;;;;;7.97;5.25;;;9.90;99.90;;;;;;5029883;28;20034;-45
2021/05/16 01:24:21;;;;;;;6.38;5.07;;;9.90;99.90;;;;;;5029826;28;20044;-45
2021/05/16 01:26:49;;;;;;;7.20;5.40;;;10.00;99.90;;;;;;5029547;28;20093;-45
2021/05/16 01:29:16;;;;;;;6.45;4.90;;;10.00;99.90;;;;;;5026939;28;20475;-45
2021/05/16 01:31:42;;;;;;;6.72;5.63;;;10.00;99.90;;;;;;5029940;28;20552;-45
2021/05/16 01:34:08;;;;;;;6.35;5.35;;;10.00;99.90;;;;;;5030292;28;20032;-47
2021/05/16 01:36:34;;;;;;;7.97;5.30;;;10.00;99.90;;;;;;5030492;28;20107;-45
2021/05/16 01:39:00;;;;;;;6.00;5.00;;;10.00;99.90;;;;;;5029986;28;20179;-47
2021/05/16 01:41:26;;;;;;;10.35;5.07;;;10.00;99.90;;;;;;5028637;28;20439;-46
2021/05/16 01:43:54;;;;;;;10.55;5.60;;;10.00;99.90;;;;;;5030410;28;20071;-45
2021/05/16 01:46:19;;;;;;;6.05;5.40;;;10.10;99.90;;;;;;5030091;28;20021;-46
2021/05/16 01:48:45;;;;;;;9.07;5.32;;;10.10;99.90;;;;;;5028114;28;20176;-45
2021/05/16 01:51:11;;;;;;;7.43;5.18;;;10.00;99.90;;;;;;5030167;28;20403;-46
2021/05/16 01:53:37;;;;;;;6.40;4.80;;;10.10;99.90;;;;;;5030143;28;20029;-46
2021/05/16 01:56:05;;;;;;;7.43;5.22;;;10.00;99.90;;;;;;5030071;28;20025;-46
2021/05/16 01:58:31;;;;;;;7.70;6.32;;;10.00;99.90;;;;;;5029237;28;20035;-45
2021/05/16 02:00:57;;;;;;;7.72;5.63;;;9.90;99.90;;;;;;5030003;28;20256;-45
2021/05/16 02:03:23;;;;;;;8.25;5.35;;;10.00;99.90;;;;;;5030074;28;20036;-45
2021/05/16 02:05:50;;;;;;;7.28;5.60;;;9.90;99.90;;;;;;5029903;28;20483;-45
2021/05/16 02:08:18;;;;;;;7.55;5.53;;;9.90;99.90;;;;;;5028803;28;20430;-46
2021/05/16 02:10:44;;;;;;;5.72;4.97;;;9.80;99.90;;;;;;5029081;28;20052;-47
2021/05/16 02:13:09;;;;;;;7.55;5.57;;;9.80;99.90;;;;;;5029835;28;20021;-47
2021/05/16 02:15:35;;;;;;;7.95;5.82;;;9.80;99.90;;;;;;5029791;28;20029;-45
2021/05/16 02:18:01;;;;;;;5.55;4.85;;;9.90;99.90;;;;;;5029203;28;20070;-44
2021/05/16 02:20:27;;;;;;;9.45;5.03;;;9.90;99.90;;;;;;5029498;28;20502;-45
2021/05/16 02:22:53;;;;;;;8.85;5.28;;;9.80;99.90;;;;;;5029479;28;20033;-44
2021/05/16 02:25:19;;;;;;;9.13;5.65;;;9.80;99.90;;;;;;5029390;28;20105;-45
2021/05/16 02:27:47;;;;;;;6.40;5.28;;;9.80;99.90;;;;;;5028786;28;20117;-45
2021/05/16 02:30:13;;;;;;;7.10;5.07;;;9.70;99.90;;;;;;5029580;28;20048;-45
2021/05/16 02:32:39;;;;;;;7.20;5.05;;;9.70;99.90;;;;;;5029116;28;20492;-45
2021/05/16 02:35:06;;;;;;;10.40;4.90;;;9.80;99.90;;;;;;5028637;28;20423;-44
2021/05/16 02:37:32;;;;;;;10.80;4.72;;;9.80;99.90;;;;;;5028754;28;20104;-44
2021/05/16 02:39:57;;;;;;;6.95;4.85;;;9.80;99.90;;;;;;5028640;28;20101;-45
2021/05/16 02:42:23;;;;;;;6.32;4.43;;;9.80;99.90;;;;;;5029455;28;20021;-44
2021/05/16 02:44:48;;;;;;;8.70;4.60;;;9.90;99.90;;;;;;5029181;28;20037;-44
2021/05/16 02:47:14;;;;;;;6.30;4.53;;;9.90;99.90;;;;;;5029129;28;20394;-45
2021/05/16 02:49:39;;;;;;;9.57;4.65;;;9.80;99.90;;;;;;5028621;28;20276;-44
2021/05/16 02:52:05;;;;;;;6.32;5.10;;;9.80;99.90;;;;;;5029124;28;20067;-44
2021/05/16 02:54:30;;;;;;;7.78;4.45;;;9.80;99.90;;;;;;5028821;28;20037;-44
2021/05/16 02:56:56;;;;;;;8.23;4.80;;;9.80;99.90;;;;;;5029064;28;20240;-45
2021/05/16 02:59:23;;;;;;;5.82;4.53;;;9.80;99.90;;;;;;5028388;28;20025;-45
2021/05/16 03:01:49;;;;;;;6.90;4.93;;;9.80;99.90;;;;;;5028926;28;20514;-46
2021/05/16 03:04:14;;;;;;;6.10;4.78;;;9.80;99.90;;;;;;5027570;28;20060;-45
2021/05/16 03:06:40;;;;;;;7.25;4.30;;;9.80;99.90;;;;;;5028830;28;20368;-46
2021/05/16 03:09:06;;;;;;;7.85;4.63;;;9.80;99.90;;;;;;5028229;28;20032;-44
2021/05/16 03:11:31;;;;;;;6.25;4.53;;;9.80;99.90;;;;;;5028778;28;20025;-45
2021/05/16 03:13:57;;;;;;;8.10;4.57;;;9.80;99.90;;;;;;5028736;28;20429;-45
2021/05/16 03:16:23;;;;;;;9.45;4.63;;;9.80;99.90;;;;;;5028613;28;20148;-44
2021/05/16 03:18:49;;;;;;;8.30;5.38;;;9.80;99.90;;;;;;5028067;28;20029;-46
2021/05/16 03:21:14;;;;;;;10.10;5.10;;;9.80;99.90;;;;;;5027512;28;20029;-45
2021/05/16 03:23:39;;;;;;;5.90;4.40;;;9.80;99.90;;;;;;5028601;28;20046;-46
2021/05/16 03:26:05;;;;;;;5.72;5.15;;;9.80;99.90;;;;;;5028637;28;20647;-44
2021/05/16 03:28:31;;;;;;;5.85;5.00;;;9.90;99.90;;;;;;5028272;28;20063;-44
2021/05/16 03:30:57;;;;;;;12.77;4.93;;;9.80;99.90;;;;;;5028534;28;20526;-44
2021/05/16 03:33:23;;;;;;;7.43;4.57;;;9.90;99.90;;;;;;5028520;28;20104;-45
2021/05/16 03:35:49;;;;;;;7.63;5.22;;;9.90;99.90;;;;;;5028359;28;20041;-46
2021/05/16 03:38:14;;;;;;;7.28;5.15;;;9.90;99.90;;;;;;5027789;28;20061;-44
2021/05/16 03:40:40;;;;;;;9.35;5.50;;;9.90;99.90;;;;;;5028402;28;20064;-44
2021/05/16 03:43:06;;;;;;;7.55;5.45;;;9.90;99.90;;;;;;5028575;28;20079;-44
2021/05/16 03:45:31;;;;;;;8.38;5.00;;;9.90;99.90;;;;;;5026982;28;20036;-45
2021/05/16 03:47:57;;;;;;;7.50;5.18;;;9.90;99.90;;;;;;5031152;28;20114;-44
2021/05/16 03:50:23;;;;;;;9.07;5.38;;;9.90;99.90;;;;;;5032827;28;20029;-44
2021/05/16 03:52:48;;;;;;;8.65;5.53;;;9.90;99.90;;;;;;5032390;28;20057;-45
2021/05/16 03:55:14;;;;;;;10.95;6.43;;;9.90;99.90;;;;;;5032373;28;20092;-45
2021/05/16 03:57:40;;;;;;;7.50;5.18;;;9.90;99.90;;;;;;5031833;28;20021;-45
2021/05/16 04:00:07;;;;;;;11.70;6.85;;;9.80;99.90;;;;;;5032221;28;20064;-45
2021/05/16 04:02:33;;;;;;;10.63;6.60;;;9.80;99.90;;;;;;5032051;28;20095;-46
2021/05/16 04:04:59;;;;;;;11.77;6.63;;;9.80;99.90;;;;;;5030683;28;20017;-45
2021/05/16 04:07:24;;;;;;;9.90;5.63;;;9.80;99.90;;;;;;5031532;28;20498;-45
2021/05/16 04:09:50;;;;;;;9.70;6.85;;;9.90;99.90;;;;;;5032242;28;20022;-48
2021/05/16 04:12:16;;;;;;;8.10;6.30;;;9.80;99.90;;;;;;5032061;28;20026;-45
2021/05/16 04:14:44;;;;;;;6.88;5.40;;;9.90;99.90;;;;;;5031853;28;20068;-44
2021/05/16 04:17:09;;;;;;;9.07;6.10;;;9.90;99.90;;;;;;5031873;28;20490;-45
2021/05/16 04:19:35;;;;;;;10.25;6.13;;;9.90;99.90;;;;;;5031254;28;20026;-46
2021/05/16 04:22:01;;;;;;;7.95;6.38;;;10.00;99.90;;;;;;5031753;28;20021;-45
2021/05/16 04:24:26;;;;;;;7.25;5.80;;;10.00;99.90;;;;;;5030675;28;20045;-44
2021/05/16 04:26:52;;;;;;;6.72;6.03;;;10.00;99.90;;;;;;5031745;28;20032;-44
2021/05/16 04:29:17;;;;;;;9.68;6.38;;;10.00;99.90;;;;;;5031474;28;20021;-44
2021/05/16 04:31:43;;;;;;;10.45;5.95;;;10.00;99.90;;;;;;5030705;28;20655;-45
2021/05/16 04:34:09;;;;;;;10.63;6.15;;;10.00;99.90;;;;;;5031991;28;20390;-44
2021/05/16 04:36:34;;;;;;;10.52;6.05;;;10.00;99.90;;;;;;5031522;28;20626;-45
2021/05/16 04:39:00;;;;;;;11.35;5.95;;;10.00;99.90;;;;;;5030783;28;20041;-44
2021/05/16 04:41:25;;;;;;;11.80;5.78;;;10.00;99.90;;;;;;5030358;28;20115;-47
2021/05/16 04:43:51;;;;;;;8.40;5.90;;;10.00;99.90;;;;;;5030291;28;20149;-46
2021/05/16 04:46:16;;;;;;;11.57;6.03;;;10.00;99.90;;;;;;5029946;28;20193;-45
2021/05/16 04:48:43;;;;;;;7.38;5.22;;;10.00;99.90;;;;;;5030888;28;20249;-46
2021/05/16 04:51:09;;;;;;;10.60;4.97;;;10.10;99.90;;;;;;5031374;28;20545;-46
2021/05/16 04:53:36;;;;;;;11.88;5.10;;;10.10;99.90;;;;;;5031719;28;20025;-45
2021/05/16 04:56:02;;;;;;;7.90;5.63;;;10.20;99.90;;;;;;5029959;28;20025;-45
2021/05/16 04:58:28;;;;;;;9.52;5.63;;;10.20;99.90;;;;;;5030153;28;20029;-45
2021/05/16 05:00:55;;;;;;;8.20;4.72;;;10.30;99.90;;;;;;5030889;28;20394;-45
2021/05/16 05:03:21;;;;;;;10.52;5.50;;;10.40;99.90;;;;;;5030510;28;20108;-45
2021/05/16 05:05:54;;;;;;;10.60;5.30;;;10.60;99.90;;;;;;5030466;28;20061;-45
2021/05/16 05:08:21;;;;;;;11.32;4.38;;;10.60;99.90;;;;;;5029959;28;20045;-44
2021/05/16 05:10:47;;;;;;;7.97;4.65;;;10.70;99.90;;;;;;5028837;28;20029;-47
2021/05/16 05:13:13;;;;;;;9.35;4.35;;;10.70;99.90;;;;;;5029520;28;20284;-43
2021/05/16 05:15:39;;;;;;;8.75;4.25;;;10.80;99.90;;;;;;5029732;28;20424;-44
2021/05/16 05:18:04;;;;;;;11.70;4.47;;;10.90;99.90;;;;;;5022039;28;20022;-45
2021/05/16 05:20:30;;;;;;;7.53;4.43;;;11.00;99.90;;;;;;5022135;28;20255;-44
2021/05/16 05:22:56;;;;;;;7.15;4.20;;;11.10;99.90;;;;;;5028481;28;20038;-44
2021/05/16 05:25:21;;;;;;;8.52;4.13;;;11.10;99.90;;;;;;5030464;28;20025;-44
2021/05/16 05:27:47;;;;;;;6.63;3.90;;;11.10;99.90;;;;;;5030042;28;20028;-44
2021/05/16 05:30:13;;;;;;;7.07;3.60;;;11.10;99.90;;;;;;5029552;28;20048;-44
2021/05/16 05:32:39;;;;;;;5.90;3.17;;;11.20;99.90;;;;;;5030130;28;20453;-45
2021/05/16 05:35:05;;;;;;;10.00;3.53;;;11.30;99.90;;;;;;5029886;28;20028;-47
2021/05/16 05:37:31;;;;;;;6.05;3.47;;;11.30;99.90;;;;;;5029014;28;20071;-46
2021/05/16 05:39:57;;;;;;;7.72;3.72;;;11.40;99.90;;;;;;5029092;28;20033;-45
2021/05/16 05:42:25;;;;;;;6.78;3.22;;;11.40;99.90;;;;;;5029117;28;20391;-45
2021/05/16 05:44:50;;;;;;;8.00;3.90;;;11.50;99.90;;;;;;5030026;28;20107;-45
2021/05/16 05:47:16;;;;;;;6.90;3.00;;;11.50;99.90;;;;;;5030308;28;20514;-45
2021/05/16 05:49:41;;;;;;;8.25;3.90;;;11.40;99.90;;;;;;5030165;28;20522;-46
2021/05/16 05:52:07;;;;;;;11.38;3.53;;;11.30;99.90;;;;;;5028791;28;20148;-46
2021/05/16 05:54:34;;;;;;;7.80;3.97;;;11.30;99.90;;;;;;5030033;28;20049;-47
2021/05/16 05:57:00;;;;;;;6.82;3.50;;;11.20;99.90;;;;;;5030064;28;20030;-45
2021/05/16 05:59:25;;;;;;;8.10;3.38;;;11.20;99.90;;;;;;5029448;28;20045;-45
2021/05/16 06:01:51;;;;;;;5.28;3.13;;;11.20;99.90;;;;;;5029911;28;20036;-45
2021/05/16 06:04:16;;;;;;;8.20;3.13;;;11.20;99.90;;;;;;5030096;28;20022;-45
2021/05/16 06:06:42;;;;;;;14.70;3.92;;;11.30;99.90;;;;;;5029997;28;20060;-46
2021/05/16 06:09:07;;;;;;;10.50;3.97;;;11.30;99.90;;;;;;5026345;28;20458;-45
2021/05/16 06:11:34;;;;;;;7.40;4.35;;;11.30;99.90;;;;;;5027261;28;20087;-45
2021/05/16 06:13:59;;;;;;;9.38;4.05;;;11.30;99.90;;;;;;5029382;28;20033;-47
2021/05/16 06:16:25;;;;;;;6.55;3.65;;;11.30;99.90;;;;;;5029288;28;20412;-45
2021/05/16 06:18:51;;;;;;;10.85;3.63;;;11.40;99.90;;;;;;5028574;28;20025;-46
2021/05/16 06:21:16;;;;;;;9.23;3.83;;;11.40;99.90;;;;;;5029662;28;20029;-45
2021/05/16 06:24:02;;;;;;;12.50;4.30;;;11.50;99.90;;;;;;5029705;28;20025;-45
2021/05/16 06:26:29;;;;;;;7.82;3.78;;;11.50;99.90;;;;;;5029655;28;20418;-46
2021/05/16 06:28:55;;;;;;;10.45;4.18;;;11.70;99.90;;;;;;5029012;28;20430;-46
2021/05/16 06:31:26;;;;;;;11.77;4.30;;;11.70;99.90;;;;;;5086497;28;20683;-44
2021/05/16 06:33:52;;;;;;;10.35;3.92;;;11.80;99.90;;;;;;5077273;28;20078;-45
2021/05/16 06:36:17;;;;;;;9.13;3.78;;;12.00;99.90;;;;;;5066034;28;20032;-46
2021/05/16 06:38:43;;;;;;;14.65;4.10;;;12.10;99.90;;;;;;5065072;28;20467;-45
2021/05/16 06:41:09;;;;;;;11.23;3.85;;;12.30;99.90;;;;;;5084361;28;20502;-45
2021/05/16 06:43:35;;;;;;;17.90;4.95;;;12.30;99.90;;;;;;5085714;28;20035;-44
2021/05/16 06:46:00;;;;;;;9.70;3.70;;;12.40;99.90;;;;;;5085144;28;20024;-44
2021/05/16 06:48:26;;;;;;;11.90;3.90;;;12.60;99.90;;;;;;5084986;28;20482;-44
2021/05/16 06:50:52;;;;;;;11.60;3.70;;;12.80;99.90;;;;;;5085967;28;20032;-44
2021/05/16 06:53:18;;;;;;;9.75;4.35;;;13.00;99.90;;;;;;5085456;28;20458;-45
2021/05/16 06:55:44;;;;;;;17.70;4.18;;;13.00;99.90;;;;;;5085470;28;20059;-45
2021/05/16 06:58:10;;;;;;;15.20;4.45;;;13.00;99.90;;;;;;5084513;28;20016;-44
2021/05/16 07:00:36;;;;;;;10.50;4.05;;;13.00;99.90;;;;;;5084866;28;20503;-45
2021/05/16 07:03:01;;;;;;;14.27;3.97;;;13.20;99.90;;;;;;5085349;28;20036;-45
2021/05/16 07:05:27;;;;;;;9.35;3.67;;;13.30;99.90;;;;;;5085149;28;20031;-44
2021/05/16 07:07:52;;;;;;;9.00;3.35;;;13.30;99.90;;;;;;5084797;28;20024;-45
2021/05/16 07:10:19;;;;;;;13.48;3.25;;;13.30;99.90;;;;;;5085237;28;20025;-46
2021/05/16 07:12:44;;;;;;;13.20;4.07;;;13.50;99.90;;;;;;5084365;28;20032;-45
2021/05/16 07:15:13;;;;;;;10.80;3.28;;;13.50;99.90;;;;;;5085242;28;20385;-46
2021/05/16 07:17:39;;;;;;;6.97;2.80;;;13.50;99.90;;;;;;5084051;28;20603;-45
2021/05/16 07:20:05;;;;;;;10.85;3.60;;;13.30;99.90;;;;;;5085317;28;20107;-46
2021/05/16 07:22:31;;;;;;;9.98;3.35;;;13.20;99.90;;;;;;5085040;28;20024;-45
2021/05/16 07:24:56;;;;;;;16.38;3.08;;;13.20;99.90;;;;;;5082957;28;20039;-45
2021/05/16 07:27:22;;;;;;;9.50;2.83;;;13.30;99.90;;;;;;5083921;28;20092;-45
2021/05/16 07:29:49;;;;;;;12.98;3.25;;;13.00;99.90;;;;;;5084269;28;20550;-45
2021/05/16 07:32:14;;;;;;;6.70;2.70;;;13.20;99.90;;;;;;5085021;28;20409;-46
2021/05/16 07:34:40;;;;;;;10.60;2.40;;;13.30;99.90;;;;;;5084188;28;20032;-46
2021/05/16 07:37:05;;;;;;;8.25;2.50;;;13.40;99.90;;;;;;5084872;28;20550;-46
2021/05/16 07:39:30;;;;;;;7.75;2.53;;;13.50;99.90;;;;;;5084055;28;20111;-45
2021/05/16 07:41:56;;;;;;;9.75;3.17;;;13.70;99.90;;;;;;5075466;28;20024;-45
2021/05/16 07:44:22;;;;;;;10.88;3.05;;;13.50;99.90;;;;;;5071271;28;20051;-45
2021/05/16 07:46:47;;;;;;;10.13;2.85;;;13.50;99.90;;;;;;5071352;28;20036;-45
2021/05/16 07:49:14;;;;;;;7.70;2.67;;;13.90;99.90;;;;;;5069211;28;20024;-45
2021/05/16 07:51:41;;;;;;;9.82;2.80;;;14.20;99.90;;;;;;5071043;28;20032;-44
2021/05/16 07:54:07;;;;;;;6.85;2.45;;;14.10;99.90;;;;;;5070114;28;20009;-46
2021/05/16 07:56:32;;;;;;;6.63;2.53;;;13.90;99.90;;;;;;5070947;28;20029;-45
2021/05/16 07:58:58;;;;;;;10.50;2.30;;;14.00;99.90;;;;;;5070442;28;20340;-46
2021/05/16 08:01:24;;;;;;;7.32;2.65;;;14.40;99.90;;;;;;5071289;28;20824;-45
2021/05/16 08:03:50;;;;;;;6.00;2.40;;;14.80;99.90;;;;;;5072447;28;20075;-46
2021/05/16 08:06:16;;;;;;;8.45;2.47;;;15.00;99.90;;;;;;5071982;28;20024;-46
2021/05/16 08:08:41;;;;;;;7.75;2.45;;;15.20;99.90;;;;;;5071469;28;20050;-46
2021/05/16 08:11:07;;;;;;;6.05;2.13;;;15.40;99.90;;;;;;5071786;28;20020;-46
2021/05/16 08:13:33;;;;;;;9.32;2.38;;;15.80;99.90;;;;;;5054159;28;20025;-48
2021/05/16 08:15:58;;;;;;;5.72;1.90;;;15.90;99.90;;;;;;5072111;28;20535;-45
2021/05/16 08:18:24;;;;;;;7.85;2.63;;;15.90;99.90;;;;;;5071125;28;20025;-44
2021/05/16 08:20:49;;;;;;;4.93;1.98;;;15.90;99.90;;;;;;5071535;28;20129;-45
2021/05/16 08:23:15;;;;;;;7.00;2.05;;;16.10;99.90;;;;;;5079803;28;20024;-46
2021/05/16 08:25:41;;;;;;;8.43;2.58;;;15.90;99.90;;;;;;5087136;28;20063;-44
2021/05/16 08:28:08;;;;;;;7.40;2.55;;;15.40;99.90;;;;;;5033363;28;20021;-44
2021/05/16 08:30:34;;;;;;;7.55;2.40;;;15.20;99.90;;;;;;5051865;28;20064;-45
2021/05/16 08:32:59;;;;;;;13.18;2.67;;;15.20;99.90;;;;;;5084210;28;20028;-45
2021/05/16 08:35:25;;;;;;;7.35;2.15;;;15.00;99.90;;;;;;5063063;28;20028;-45
2021/05/16 08:37:51;;;;;;;10.05;2.83;;;15.20;99.90;;;;;;5066590;28;20048;-44
2021/05/16 08:40:17;;;;;;;11.23;2.80;;;15.10;99.90;;;;;;5067607;28;20040;-45
2021/05/16 08:42:44;;;;;;;9.85;2.53;;;15.10;99.90;;;;;;5064603;28;20020;-44
2021/05/16 08:45:12;;;;;;;10.35;2.75;;;14.90;99.90;;;;;;5049397;28;20024;-46
2021/05/16 08:47:40;;;;;;;13.30;3.05;;;14.80;99.90;;;;;;5066197;28;20028;-44
2021/05/16 08:50:09;;;;;;;8.35;2.55;;;14.80;99.90;;;;;;5064534;28;20029;-45
2021/05/16 08:52:35;;;;;;;14.95;2.17;;;15.00;99.90;;;;;;5066603;28;20162;-47
2021/05/16 08:55:00;;;;;;;7.65;2.30;;;15.80;99.90;;;;;;5066400;28;20111;-45
2021/05/16 08:57:26;;;;;;;10.35;2.65;;;16.70;98.20;;;;;;5066541;28;20024;-45
2021/05/16 09:00:06;;;;;;;10.23;2.83;;;17.40;94.70;;;;;;5049783;28;20260;-45
2021/05/16 09:02:31;;;;;;;8.48;2.58;;;17.10;92.90;;;;;;5068326;28;20033;-45
2021/05/16 09:04:57;;;;;;;10.85;3.05;;;16.70;94.00;;;;;;5068535;28;20035;-46
2021/05/16 09:07:30;;;;;;;7.82;2.35;;;16.50;94.70;;;;;;5068569;28;20386;-45
2021/05/16 09:09:55;;;;;;;8.13;2.75;;;16.20;93.20;;;;;;5066803;28;20063;-46
2021/05/16 09:12:22;;;;;;;10.98;2.80;;;15.90;95.50;;;;;;5067307;28;20017;-45
2021/05/16 09:14:57;;;;;;;9.85;2.35;;;15.40;95.80;;;;;;5050234;28;20027;-46
2021/05/16 09:17:36;;;;;;;8.73;2.55;;;15.10;98.00;;;;;;5068176;28;20032;-47
2021/05/16 09:20:06;;;;;;;15.93;3.22;;;15.30;99.40;;;;;;5067587;28;20040;-47
2021/05/16 09:22:37;;;;;;;9.88;2.65;;;15.70;98.30;;;;;;5068244;28;20112;-46
2021/05/16 09:25:08;;;;;;;9.52;3.05;;;16.10;98.10;;;;;;5066504;28;20024;-48
2021/05/16 09:27:34;;;;;;;;;;;16.60;99.60;;;;;;5068057;28;20101;-47
2021/05/16 09:30:00;;;;;;;14.57;3.13;;;17.10;97.50;;;;;;5050617;28;19995;-45
2021/05/16 09:32:26;;;;;;;16.38;3.40;;;17.70;98.30;;;;;;5047239;28;20025;-44
2021/05/16 09:34:53;;;;;;;8.25;2.63;;;18.00;95.30;;;;;;5047717;28;20021;-47
2021/05/16 09:37:18;;;;;;;14.40;3.17;;;18.00;95.70;;;;;;5046333;28;20387;-45
2021/05/16 09:39:45;;;;;;;9.55;2.67;;;17.90;95.20;;;;;;5050863;28;20039;-45
2021/05/16 09:42:13;;;;;;;11.48;3.03;;;17.60;95.00;;;;;;5060150;28;20024;-44
2021/05/16 09:44:57;;;;;;;9.15;2.53;;;17.00;93.60;;;;;;5066270;28;20516;-44
2021/05/16 09:47:27;;;;;;;12.20;2.55;;;16.50;93.40;;;;;;5065971;28;20028;-45
2021/05/16 09:49:59;;;;;;;11.13;3.20;;;16.20;92.70;;;;;;5066478;28;20035;-45
2021/05/16 09:52:27;;;;;;;10.23;2.70;;;16.10;94.50;;;;;;5064904;28;20028;-45
2021/05/16 09:55:10;;;;;;;10.02;2.75;;;15.90;94.10;;;;;;5049194;28;20413;-43
2021/05/16 09:57:41;;;;;;;12.07;4.55;;;15.80;94.70;;;;;;5066322;28;20032;-48
2021/05/16 10:00:10;;;;;;;14.75;2.60;;;15.80;93.70;;;;;;5068337;28;20029;-47
2021/05/16 10:02:36;;;;;;;13.98;3.40;;;16.00;94.00;;;;;;5068971;28;20128;-45
2021/05/16 10:05:06;;;;;;;13.63;3.15;;;15.90;94.10;;;;;;5067442;28;20317;-46
2021/05/16 10:07:32;;;;;;;11.85;2.70;;;16.00;94.10;;;;;;5049286;28;20024;-45
2021/05/16 10:09:59;;;;;;;11.55;2.55;;;16.30;92.50;;;;;;5068028;28;20031;-45
2021/05/16 10:12:25;;;;;;;9.70;2.20;;;16.60;92.10;;;;;;5055545;28;20055;-45
2021/05/16 10:15:20;;;;;;;9.27;2.67;;;17.20;91.30;;;;;;5051703;28;20029;-46
2021/05/16 10:17:52;;;;;;;9.00;2.30;;;17.90;88.80;;;;;;5054097;28;20029;-45
2021/05/16 10:20:23;;;;;;;13.07;3.40;;;17.90;88.20;;;;;;5067445;28;20040;-46
2021/05/16 10:22:56;;;;;;;7.32;2.25;;;18.30;84.90;;;;;;5068292;28;20040;-45
2021/05/16 10:25:39;;;;;;;8.13;2.38;;;18.20;84.20;;;;;;5068799;28;20028;-47
2021/05/16 10:28:04;;;;;;;9.40;2.42;;;17.90;81.00;;;;;;5067829;28;20028;-47
2021/05/16 10:30:30;;;;;;;10.20;2.80;;;17.80;83.80;;;;;;5068245;28;20044;-46
2021/05/16 10:32:55;;;;;;;5.63;2.00;;;18.00;83.50;;;;;;5050760;28;20367;-45
2021/05/16 10:35:22;;;;;;;6.72;2.38;;;19.30;78.70;;;;;;5068736;28;20035;-48
2021/05/16 10:37:54;;;;;;;5.95;2.33;;;20.70;77.40;;;;;;5066855;28;20423;-46
2021/05/16 10:40:20;;;;;;;9.60;2.50;;;22.80;64.20;;;;;;5066581;28;20112;-46
2021/05/16 10:42:47;;;;;;;6.10;2.10;;;23.30;57.60;;;;;;5066808;28;20545;-45
2021/05/16 10:45:21;;;;;;;8.35;2.40;;;23.90;59.20;;;;;;5066340;28;20039;-45
2021/05/16 10:47:49;;;;;;;6.60;2.00;;;23.60;56.00;;;;;;5064294;28;20027;-48
2021/05/16 10:50:24;;;;;;;9.57;2.20;;;23.50;55.20;;;;;;5066895;28;20547;-45
2021/05/16 10:53:01;;;;;;;6.13;2.55;;;22.80;57.10;;;;;;5065049;28;20107;-48
2021/05/16 10:55:32;;;;;;;6.35;2.10;;;21.40;57.90;;;;;;5065826;28;20169;-44
2021/05/16 10:57:58;;;;;;;10.13;2.10;;;19.90;62.00;;;;;;5062807;28;20091;-46
2021/05/16 11:00:26;;;;;;;7.07;2.40;;;19.50;66.50;;;;;;5065298;28;20067;-46
2021/05/16 11:02:58;;;;;;;9.02;2.13;;;19.70;67.10;;;;;;5065846;28;20107;-44
2021/05/16 11:05:43;;;;;;;10.18;2.58;;;20.50;65.90;;;;;;5066752;28;20029;-45
2021/05/16 11:08:11;;;;;;;8.38;2.83;;;20.20;62.80;;;;;;5065515;28;20150;-48
2021/05/16 11:10:37;;;;;;;8.13;2.15;;;20.40;63.10;;;;;;5065865;28;20081;-48
2021/05/16 11:13:31;;;;;;;6.28;2.30;;;20.40;63.40;;;;;;5064405;28;20067;-46
2021/05/16 11:16:06;;;;;;;8.20;2.28;;;19.80;64.30;;;;;;5066360;28;20397;-45
2021/05/16 11:18:32;;;;;;;9.35;2.53;;;19.20;67.60;;;;;;5069614;28;20090;-46
2021/05/16 11:21:08;;;;;;;14.27;2.85;;;18.70;68.00;;;;;;5052517;28;20059;-48
2021/05/16 11:23:44;;;;;;;6.10;1.98;;;18.30;69.00;;;;;;5070360;28;20460;-46
2021/05/16 11:26:12;;;;;;;4.60;1.70;;;17.70;73.70;;;;;;5069739;28;20478;-45
2021/05/16 11:28:58;;;;;;;9.10;1.67;;;16.90;77.30;;;;;;5069678;28;20028;-45
2021/05/16 11:31:33;;;;;;;5.95;1.80;;;15.60;82.40;;;;;;5051810;28;20394;-45
2021/05/16 11:34:05;;;;;;;5.30;1.45;;;16.00;88.60;;;;;;5070207;28;20029;-46
2021/05/16 11:36:33;;;;;;;4.03;1.52;;;15.90;92.40;;;;;;5069821;28;20024;-45
2021/05/16 11:39:01;;;;;;;9.68;1.77;;;15.80;90.90;;;;;;5069556;28;20386;-47
2021/05/16 11:41:27;;;;;;;5.30;2.03;;;15.90;89.00;;;;;;5068174;28;20029;-45
2021/05/16 11:43:54;;;;;;;4.40;1.33;;;16.00;86.50;;;;;;5069466;28;20035;-45
2021/05/16 11:46:52;;;;;;;2.92;1.10;;;16.30;87.40;;;;;;5070862;28;20036;-48
2021/05/16 11:49:26;;;;;;;6.43;1.70;;;16.60;90.00;;;;;;5024497;28;20036;-45
2021/05/16 11:51:55;;;;;;;12.45;2.30;;;16.90;87.00;;;;;;5069903;28;20227;-45
2021/05/16 11:54:25;;;;;;;4.50;1.50;;;17.20;87.40;;;;;;5069441;28;20119;-46
2021/05/16 11:56:51;;;;;;;5.33;1.77;;;17.10;84.20;;;;;;5069472;28;20025;-45
2021/05/16 11:59:17;;;;;;;8.05;2.05;;;16.80;84.80;;;;;;5068984;28;20267;-45
2021/05/16 12:01:45;;;;;;;4.20;1.42;;;16.80;85.50;;;;;;5069361;28;20043;-45
2021/05/16 12:04:16;;;;;;;7.65;2.28;;;16.90;85.90;;;;;;5069994;28;20048;-44
2021/05/16 12:06:47;;;;;;;7.30;2.08;;;16.80;86.30;;;;;;5069006;28;20028;-44
2021/05/16 12:09:16;;;;;;;6.63;1.55;;;16.80;84.00;;;;;;5056513;28;20013;-45
2021/05/16 12:11:44;;;;;;;6.40;1.60;;;16.90;80.50;;;;;;5063659;28;20061;-47
2021/05/16 12:14:17;;;;;;;5.88;1.88;;;16.90;79.70;;;;;;5068699;28;20489;-46
2021/05/16 12:16:53;;;;;;;4.90;1.45;;;17.10;79.40;;;;;;5067703;28;20040;-46
2021/05/16 12:19:21;;;;;;;4.53;1.50;;;17.30;80.50;;;;;;5060611;28;20031;-44
2021/05/16 12:21:50;;;;;;;4.97;1.60;;;17.50;78.00;;;;;;5058623;28;20013;-44
2021/05/16 12:24:19;;;;;;;6.45;1.50;;;17.80;77.90;;;;;;5059385;28;20053;-46
2021/05/16 12:26:45;;;;;;;4.97;1.70;;;18.20;75.80;;;;;;5056735;28;20025;-46
2021/05/16 12:29:13;;;;;;;3.65;1.38;;;18.90;72.80;;;;;;5057872;28;20078;-46
2021/05/16 12:31:39;;;;;;;7.10;1.67;;;19.30;70.40;;;;;;5054510;28;20433;-46
2021/05/16 12:34:06;;;;;;;4.85;1.83;;;19.60;68.00;;;;;;5040912;28;20028;-47
2021/05/16 12:36:58;;;;;;;6.38;1.60;;;19.60;65.80;;;;;;5039658;28;20055;-49
2021/05/16 12:39:41;;;;;;;3.28;1.60;;;20.10;66.70;;;;;;5057961;28;20222;-48
2021/05/16 12:42:27;;;;;;;9.50;1.80;;;19.90;66.10;;;;;;5057515;28;20025;-50
2021/05/16 12:44:54;;;;;;;5.65;1.60;;;19.80;63.30;;;;;;5064228;28;20021;-50
2021/05/16 12:47:25;;;;;;;3.75;1.27;;;19.80;63.30;;;;;;5049474;28;20036;-46
2021/05/16 12:50:04;;;;;;;3.70;1.33;;;19.40;65.70;;;;;;5067268;28;20123;-47